sensor_id;sensor_type;location;lat;lon;timestamp;P1;durP1;ratioP1;P2;durP2;ratioP2
52031;SDS011;38044;45.148;39.604;2022-12-24T00:01:13;37.72;;;20.65;;
52031;SDS011;38044;45.148;39.604;2022-12-24T00:03:39;38.53;;;21.42;;
52031;SDS011;38044;45.148;39.604;2022-12-24T00:06:09;39.28;;;22.15;;
52031;SDS011;38044;45.148;39.604;2022-12-24T00:08:41;34.78;;;21.20;;
52031;SDS011;38044;45.148;39.604;2022-12-24T00:11:06;37.65;;;21.15;;
52031;SDS011;38044;45.148;39.604;2022-12-24T00:13:32;39.40;;;21.50;;
52031;SDS011;38044;45.148;39.604;2022-12-24T00:15:59;40.22;;;21.67;;
52031;SDS011;38044;45.148;39.604;2022-12-24T00:18:25;39.63;;;22.30;;
52031;SDS011;38044;45.148;39.604;2022-12-24T00:20:51;35.80;;;21.17;;
52031;SDS011;38044;45.148;39.604;2022-12-24T00:23:17;37.60;;;22.73;;
52031;SDS011;38044;45.148;39.604;2022-12-24T00:25:43;38.22;;;21.35;;
52031;SDS011;38044;45.148;39.604;2022-12-24T00:28:10;37.42;;;21.20;;
52031;SDS011;38044;45.148;39.604;2022-12-24T00:30:39;36.28;;;21.52;;
52031;SDS011;38044;45.148;39.604;2022-12-24T00:33:06;36.42;;;20.77;;
52031;SDS011;38044;45.148;39.604;2022-12-24T00:35:33;40.03;;;21.35;;
52031;SDS011;38044;45.148;39.604;2022-12-24T00:37:59;41.15;;;21.42;;
52031;SDS011;38044;45.148;39.604;2022-12-24T00:40:25;36.42;;;21.10;;
52031;SDS011;38044;45.148;39.604;2022-12-24T00:42:51;36.33;;;21.45;;
52031;SDS011;38044;45.148;39.604;2022-12-24T00:45:17;39.85;;;21.90;;
52031;SDS011;38044;45.148;39.604;2022-12-24T00:47:42;36.00;;;20.48;;
52031;SDS011;38044;45.148;39.604;2022-12-24T00:50:08;34.90;;;20.65;;
52031;SDS011;38044;45.148;39.604;2022-12-24T00:52:34;34.60;;;21.35;;
52031;SDS011;38044;45.148;39.604;2022-12-24T00:55:00;32.47;;;20.45;;
52031;SDS011;38044;45.148;39.604;2022-12-24T00:57:26;40.33;;;21.48;;
52031;SDS011;38044;45.148;39.604;2022-12-24T00:59:52;40.40;;;21.15;;
52031;SDS011;38044;45.148;39.604;2022-12-24T01:02:17;38.08;;;21.13;;
52031;SDS011;38044;45.148;39.604;2022-12-24T01:04:43;36.90;;;20.40;;
52031;SDS011;38044;45.148;39.604;2022-12-24T01:07:27;39.40;;;21.23;;
52031;SDS011;38044;45.148;39.604;2022-12-24T01:09:53;37.95;;;21.10;;
52031;SDS011;38044;45.148;39.604;2022-12-24T01:12:19;39.10;;;20.33;;
52031;SDS011;38044;45.148;39.604;2022-12-24T01:14:45;33.38;;;19.85;;
52031;SDS011;38044;45.148;39.604;2022-12-24T01:17:11;34.53;;;19.88;;
52031;SDS011;38044;45.148;39.604;2022-12-24T01:19:37;33.88;;;19.98;;
52031;SDS011;38044;45.148;39.604;2022-12-24T01:22:03;35.67;;;21.38;;
52031;SDS011;38044;45.148;39.604;2022-12-24T01:24:28;35.97;;;20.95;;
52031;SDS011;38044;45.148;39.604;2022-12-24T01:26:54;34.17;;;20.23;;
52031;SDS011;38044;45.148;39.604;2022-12-24T01:29:20;34.63;;;20.50;;
52031;SDS011;38044;45.148;39.604;2022-12-24T01:31:46;34.45;;;20.35;;
52031;SDS011;38044;45.148;39.604;2022-12-24T01:34:12;38.83;;;19.45;;
52031;SDS011;38044;45.148;39.604;2022-12-24T01:36:38;36.33;;;19.55;;
52031;SDS011;38044;45.148;39.604;2022-12-24T01:39:03;33.42;;;18.58;;
52031;SDS011;38044;45.148;39.604;2022-12-24T01:41:30;32.92;;;19.70;;
52031;SDS011;38044;45.148;39.604;2022-12-24T01:44:22;36.22;;;20.08;;
52031;SDS011;38044;45.148;39.604;2022-12-24T01:46:57;33.40;;;20.48;;
52031;SDS011;38044;45.148;39.604;2022-12-24T01:50:16;35.90;;;20.40;;
52031;SDS011;38044;45.148;39.604;2022-12-24T01:52:41;35.72;;;19.45;;
52031;SDS011;38044;45.148;39.604;2022-12-24T01:55:09;35.33;;;19.67;;
52031;SDS011;38044;45.148;39.604;2022-12-24T01:57:44;32.45;;;19.92;;
52031;SDS011;38044;45.148;39.604;2022-12-24T02:02:40;35.90;;;19.50;;
52031;SDS011;38044;45.148;39.604;2022-12-24T02:05:13;39.88;;;20.95;;
52031;SDS011;38044;45.148;39.604;2022-12-24T02:07:43;40.45;;;20.98;;
52031;SDS011;38044;45.148;39.604;2022-12-24T02:10:11;40.00;;;20.98;;
52031;SDS011;38044;45.148;39.604;2022-12-24T02:12:37;35.05;;;18.88;;
52031;SDS011;38044;45.148;39.604;2022-12-24T02:15:06;40.22;;;21.05;;
52031;SDS011;38044;45.148;39.604;2022-12-24T02:17:42;42.55;;;22.23;;
52031;SDS011;38044;45.148;39.604;2022-12-24T02:23:27;38.03;;;21.08;;
52031;SDS011;38044;45.148;39.604;2022-12-24T02:26:16;36.47;;;19.73;;
52031;SDS011;38044;45.148;39.604;2022-12-24T02:31:59;38.00;;;21.45;;
52031;SDS011;38044;45.148;39.604;2022-12-24T02:34:35;37.88;;;19.65;;
52031;SDS011;38044;45.148;39.604;2022-12-24T02:39:54;34.20;;;19.17;;
52031;SDS011;38044;45.148;39.604;2022-12-24T02:42:28;34.70;;;19.63;;
52031;SDS011;38044;45.148;39.604;2022-12-24T02:45:02;36.13;;;19.15;;
52031;SDS011;38044;45.148;39.604;2022-12-24T02:47:29;36.13;;;19.77;;
52031;SDS011;38044;45.148;39.604;2022-12-24T02:49:56;39.13;;;20.23;;
52031;SDS011;38044;45.148;39.604;2022-12-24T02:52:32;34.42;;;18.85;;
52031;SDS011;38044;45.148;39.604;2022-12-24T03:00:59;38.05;;;19.73;;
52031;SDS011;38044;45.148;39.604;2022-12-24T03:06:36;31.67;;;17.98;;
52031;SDS011;38044;45.148;39.604;2022-12-24T03:09:26;37.80;;;20.30;;
52031;SDS011;38044;45.148;39.604;2022-12-24T03:11:59;32.90;;;20.02;;
52031;SDS011;38044;45.148;39.604;2022-12-24T03:14:30;36.10;;;19.95;;
52031;SDS011;38044;45.148;39.604;2022-12-24T03:16:58;35.88;;;18.77;;
52031;SDS011;38044;45.148;39.604;2022-12-24T03:19:26;37.08;;;20.15;;
52031;SDS011;38044;45.148;39.604;2022-12-24T03:21:53;35.40;;;18.08;;
52031;SDS011;38044;45.148;39.604;2022-12-24T03:24:22;35.03;;;20.00;;
52031;SDS011;38044;45.148;39.604;2022-12-24T03:26:48;30.35;;;18.35;;
52031;SDS011;38044;45.148;39.604;2022-12-24T03:29:16;36.90;;;19.27;;
52031;SDS011;38044;45.148;39.604;2022-12-24T03:31:42;34.75;;;18.13;;
52031;SDS011;38044;45.148;39.604;2022-12-24T03:34:13;33.25;;;19.30;;
52031;SDS011;38044;45.148;39.604;2022-12-24T03:36:40;32.30;;;17.33;;
52031;SDS011;38044;45.148;39.604;2022-12-24T03:39:06;29.73;;;17.00;;
52031;SDS011;38044;45.148;39.604;2022-12-24T03:41:33;34.67;;;18.38;;
52031;SDS011;38044;45.148;39.604;2022-12-24T03:44:00;36.58;;;19.33;;
52031;SDS011;38044;45.148;39.604;2022-12-24T03:46:26;37.67;;;18.60;;
52031;SDS011;38044;45.148;39.604;2022-12-24T03:48:52;31.95;;;18.27;;
52031;SDS011;38044;45.148;39.604;2022-12-24T03:51:22;35.45;;;18.73;;
52031;SDS011;38044;45.148;39.604;2022-12-24T03:53:52;34.47;;;18.27;;
52031;SDS011;38044;45.148;39.604;2022-12-24T03:56:20;33.10;;;18.63;;
52031;SDS011;38044;45.148;39.604;2022-12-24T03:58:46;34.33;;;19.30;;
52031;SDS011;38044;45.148;39.604;2022-12-24T04:01:13;34.50;;;19.13;;
52031;SDS011;38044;45.148;39.604;2022-12-24T04:03:39;31.98;;;17.92;;
52031;SDS011;38044;45.148;39.604;2022-12-24T04:06:09;33.17;;;18.15;;
52031;SDS011;38044;45.148;39.604;2022-12-24T04:08:37;33.38;;;17.60;;
52031;SDS011;38044;45.148;39.604;2022-12-24T04:11:04;35.13;;;17.83;;
52031;SDS011;38044;45.148;39.604;2022-12-24T04:13:30;28.75;;;16.58;;
52031;SDS011;38044;45.148;39.604;2022-12-24T04:16:00;39.05;;;17.70;;
52031;SDS011;38044;45.148;39.604;2022-12-24T04:18:32;33.35;;;17.50;;
52031;SDS011;38044;45.148;39.604;2022-12-24T04:20:59;34.70;;;17.67;;
52031;SDS011;38044;45.148;39.604;2022-12-24T04:23:28;33.55;;;18.38;;
52031;SDS011;38044;45.148;39.604;2022-12-24T04:25:58;30.15;;;17.25;;
52031;SDS011;38044;45.148;39.604;2022-12-24T04:28:25;34.40;;;17.67;;
52031;SDS011;38044;45.148;39.604;2022-12-24T04:30:51;31.90;;;17.40;;
52031;SDS011;38044;45.148;39.604;2022-12-24T04:33:21;30.73;;;17.05;;
52031;SDS011;38044;45.148;39.604;2022-12-24T04:35:47;32.08;;;17.35;;
52031;SDS011;38044;45.148;39.604;2022-12-24T04:38:13;32.75;;;17.80;;
52031;SDS011;38044;45.148;39.604;2022-12-24T04:40:39;30.75;;;17.38;;
52031;SDS011;38044;45.148;39.604;2022-12-24T04:43:04;32.55;;;17.73;;
52031;SDS011;38044;45.148;39.604;2022-12-24T04:45:30;33.42;;;17.95;;
52031;SDS011;38044;45.148;39.604;2022-12-24T04:47:57;30.70;;;17.65;;
52031;SDS011;38044;45.148;39.604;2022-12-24T04:50:22;29.25;;;16.45;;
52031;SDS011;38044;45.148;39.604;2022-12-24T04:52:48;31.95;;;17.70;;
52031;SDS011;38044;45.148;39.604;2022-12-24T04:55:14;31.88;;;18.13;;
52031;SDS011;38044;45.148;39.604;2022-12-24T04:57:40;28.42;;;16.35;;
52031;SDS011;38044;45.148;39.604;2022-12-24T05:00:06;31.20;;;18.25;;
52031;SDS011;38044;45.148;39.604;2022-12-24T05:02:32;32.22;;;17.50;;
52031;SDS011;38044;45.148;39.604;2022-12-24T05:04:58;33.45;;;17.50;;
52031;SDS011;38044;45.148;39.604;2022-12-24T05:07:24;38.75;;;18.05;;
52031;SDS011;38044;45.148;39.604;2022-12-24T05:09:50;34.00;;;18.13;;
52031;SDS011;38044;45.148;39.604;2022-12-24T05:12:16;32.75;;;17.13;;
52031;SDS011;38044;45.148;39.604;2022-12-24T05:14:41;32.00;;;18.38;;
52031;SDS011;38044;45.148;39.604;2022-12-24T05:17:07;36.22;;;17.88;;
52031;SDS011;38044;45.148;39.604;2022-12-24T05:19:33;32.63;;;17.88;;
52031;SDS011;38044;45.148;39.604;2022-12-24T05:21:59;29.08;;;17.08;;
52031;SDS011;38044;45.148;39.604;2022-12-24T05:24:43;30.17;;;17.35;;
52031;SDS011;38044;45.148;39.604;2022-12-24T05:27:28;31.85;;;17.05;;
52031;SDS011;38044;45.148;39.604;2022-12-24T05:29:54;29.55;;;17.08;;
52031;SDS011;38044;45.148;39.604;2022-12-24T05:32:20;28.55;;;16.75;;
52031;SDS011;38044;45.148;39.604;2022-12-24T05:34:46;26.90;;;16.02;;
52031;SDS011;38044;45.148;39.604;2022-12-24T05:37:11;27.42;;;16.05;;
52031;SDS011;38044;45.148;39.604;2022-12-24T05:39:37;31.80;;;16.65;;
52031;SDS011;38044;45.148;39.604;2022-12-24T05:42:06;27.73;;;16.15;;
52031;SDS011;38044;45.148;39.604;2022-12-24T05:44:44;28.63;;;15.45;;
52031;SDS011;38044;45.148;39.604;2022-12-24T05:47:10;26.10;;;14.55;;
52031;SDS011;38044;45.148;39.604;2022-12-24T05:49:36;26.40;;;14.52;;
52031;SDS011;38044;45.148;39.604;2022-12-24T05:52:03;26.80;;;14.75;;
52031;SDS011;38044;45.148;39.604;2022-12-24T05:54:30;26.73;;;13.98;;
52031;SDS011;38044;45.148;39.604;2022-12-24T05:56:56;24.70;;;12.75;;
52031;SDS011;38044;45.148;39.604;2022-12-24T05:59:22;24.13;;;13.45;;
52031;SDS011;38044;45.148;39.604;2022-12-24T06:01:48;27.25;;;13.85;;
52031;SDS011;38044;45.148;39.604;2022-12-24T06:04:13;26.00;;;14.30;;
52031;SDS011;38044;45.148;39.604;2022-12-24T06:06:39;24.25;;;12.98;;
52031;SDS011;38044;45.148;39.604;2022-12-24T06:09:05;26.27;;;13.45;;
52031;SDS011;38044;45.148;39.604;2022-12-24T06:11:32;30.80;;;14.82;;
52031;SDS011;38044;45.148;39.604;2022-12-24T06:14:03;27.63;;;15.85;;
52031;SDS011;38044;45.148;39.604;2022-12-24T06:16:29;27.10;;;15.30;;
52031;SDS011;38044;45.148;39.604;2022-12-24T06:18:56;23.48;;;12.88;;
52031;SDS011;38044;45.148;39.604;2022-12-24T06:21:31;25.67;;;14.38;;
52031;SDS011;38044;45.148;39.604;2022-12-24T06:23:57;25.02;;;12.80;;
52031;SDS011;38044;45.148;39.604;2022-12-24T06:26:23;31.42;;;13.43;;
52031;SDS011;38044;45.148;39.604;2022-12-24T06:28:49;26.63;;;14.07;;
52031;SDS011;38044;45.148;39.604;2022-12-24T06:31:17;27.00;;;13.10;;
52031;SDS011;38044;45.148;39.604;2022-12-24T06:33:44;23.77;;;12.48;;
52031;SDS011;38044;45.148;39.604;2022-12-24T06:36:14;28.63;;;12.90;;
52031;SDS011;38044;45.148;39.604;2022-12-24T06:38:41;25.77;;;13.13;;
52031;SDS011;38044;45.148;39.604;2022-12-24T06:41:07;23.38;;;12.50;;
52031;SDS011;38044;45.148;39.604;2022-12-24T06:43:33;19.40;;;12.02;;
52031;SDS011;38044;45.148;39.604;2022-12-24T06:46:00;26.30;;;13.77;;
52031;SDS011;38044;45.148;39.604;2022-12-24T06:48:26;21.48;;;12.20;;
52031;SDS011;38044;45.148;39.604;2022-12-24T06:50:52;21.60;;;13.43;;
52031;SDS011;38044;45.148;39.604;2022-12-24T06:53:18;23.25;;;13.05;;
52031;SDS011;38044;45.148;39.604;2022-12-24T06:55:44;21.73;;;13.63;;
52031;SDS011;38044;45.148;39.604;2022-12-24T06:58:10;22.17;;;13.80;;
52031;SDS011;38044;45.148;39.604;2022-12-24T07:00:37;21.25;;;12.68;;
52031;SDS011;38044;45.148;39.604;2022-12-24T07:03:02;21.80;;;13.52;;
52031;SDS011;38044;45.148;39.604;2022-12-24T07:05:28;19.95;;;12.48;;
52031;SDS011;38044;45.148;39.604;2022-12-24T07:07:54;20.65;;;12.70;;
52031;SDS011;38044;45.148;39.604;2022-12-24T07:10:21;21.85;;;12.68;;
52031;SDS011;38044;45.148;39.604;2022-12-24T07:12:47;20.10;;;13.25;;
52031;SDS011;38044;45.148;39.604;2022-12-24T07:15:13;24.33;;;13.10;;
52031;SDS011;38044;45.148;39.604;2022-12-24T07:17:41;23.88;;;12.98;;
52031;SDS011;38044;45.148;39.604;2022-12-24T07:20:08;22.58;;;13.23;;
52031;SDS011;38044;45.148;39.604;2022-12-24T07:22:37;20.27;;;12.38;;
52031;SDS011;38044;45.148;39.604;2022-12-24T07:25:03;20.63;;;13.55;;
52031;SDS011;38044;45.148;39.604;2022-12-24T07:27:29;18.88;;;11.57;;
52031;SDS011;38044;45.148;39.604;2022-12-24T07:29:55;19.65;;;12.38;;
52031;SDS011;38044;45.148;39.604;2022-12-24T07:32:21;22.63;;;13.43;;
52031;SDS011;38044;45.148;39.604;2022-12-24T07:34:47;24.92;;;12.93;;
52031;SDS011;38044;45.148;39.604;2022-12-24T07:37:12;18.25;;;12.07;;
52031;SDS011;38044;45.148;39.604;2022-12-24T07:39:38;21.65;;;13.52;;
52031;SDS011;38044;45.148;39.604;2022-12-24T07:42:04;21.17;;;13.13;;
52031;SDS011;38044;45.148;39.604;2022-12-24T07:44:32;21.20;;;12.52;;
52031;SDS011;38044;45.148;39.604;2022-12-24T07:46:58;20.10;;;12.57;;
52031;SDS011;38044;45.148;39.604;2022-12-24T07:49:24;18.90;;;11.93;;
52031;SDS011;38044;45.148;39.604;2022-12-24T07:51:50;21.15;;;13.80;;
52031;SDS011;38044;45.148;39.604;2022-12-24T07:54:16;21.30;;;14.38;;
52031;SDS011;38044;45.148;39.604;2022-12-24T07:56:41;21.42;;;12.35;;
52031;SDS011;38044;45.148;39.604;2022-12-24T07:59:07;21.52;;;12.35;;
52031;SDS011;38044;45.148;39.604;2022-12-24T08:01:36;18.10;;;11.68;;
52031;SDS011;38044;45.148;39.604;2022-12-24T08:04:02;22.88;;;13.00;;
52031;SDS011;38044;45.148;39.604;2022-12-24T08:06:28;21.42;;;13.13;;
52031;SDS011;38044;45.148;39.604;2022-12-24T08:08:54;18.80;;;12.40;;
52031;SDS011;38044;45.148;39.604;2022-12-24T08:11:20;21.52;;;12.07;;
52031;SDS011;38044;45.148;39.604;2022-12-24T08:13:46;20.23;;;12.32;;
52031;SDS011;38044;45.148;39.604;2022-12-24T08:16:12;20.52;;;12.52;;
52031;SDS011;38044;45.148;39.604;2022-12-24T08:18:37;24.52;;;13.75;;
52031;SDS011;38044;45.148;39.604;2022-12-24T08:21:05;19.50;;;12.13;;
52031;SDS011;38044;45.148;39.604;2022-12-24T08:23:33;19.35;;;12.65;;
52031;SDS011;38044;45.148;39.604;2022-12-24T08:26:00;20.98;;;12.90;;
52031;SDS011;38044;45.148;39.604;2022-12-24T08:28:26;21.95;;;13.60;;
52031;SDS011;38044;45.148;39.604;2022-12-24T08:30:52;18.88;;;12.90;;
52031;SDS011;38044;45.148;39.604;2022-12-24T08:33:18;18.17;;;11.73;;
52031;SDS011;38044;45.148;39.604;2022-12-24T08:35:51;20.48;;;12.05;;
52031;SDS011;38044;45.148;39.604;2022-12-24T08:38:18;21.40;;;12.15;;
52031;SDS011;38044;45.148;39.604;2022-12-24T08:40:44;20.42;;;12.35;;
52031;SDS011;38044;45.148;39.604;2022-12-24T08:43:14;21.02;;;12.38;;
52031;SDS011;38044;45.148;39.604;2022-12-24T08:45:41;17.73;;;11.65;;
52031;SDS011;38044;45.148;39.604;2022-12-24T08:48:07;19.17;;;12.55;;
52031;SDS011;38044;45.148;39.604;2022-12-24T08:50:34;15.80;;;10.88;;
52031;SDS011;38044;45.148;39.604;2022-12-24T08:53:03;17.98;;;11.20;;
52031;SDS011;38044;45.148;39.604;2022-12-24T08:55:28;17.45;;;11.88;;
52031;SDS011;38044;45.148;39.604;2022-12-24T08:57:54;18.02;;;11.07;;
52031;SDS011;38044;45.148;39.604;2022-12-24T09:00:20;19.55;;;11.15;;
52031;SDS011;38044;45.148;39.604;2022-12-24T09:02:46;17.27;;;11.13;;
52031;SDS011;38044;45.148;39.604;2022-12-24T09:05:12;17.55;;;11.13;;
52031;SDS011;38044;45.148;39.604;2022-12-24T09:07:38;16.90;;;10.77;;
52031;SDS011;38044;45.148;39.604;2022-12-24T09:10:04;15.52;;;10.32;;
52031;SDS011;38044;45.148;39.604;2022-12-24T09:12:30;13.20;;;9.60;;
52031;SDS011;38044;45.148;39.604;2022-12-24T09:14:56;17.38;;;10.40;;
52031;SDS011;38044;45.148;39.604;2022-12-24T09:17:22;14.57;;;10.15;;
52031;SDS011;38044;45.148;39.604;2022-12-24T09:19:47;17.30;;;10.90;;
52031;SDS011;38044;45.148;39.604;2022-12-24T09:22:13;19.45;;;10.23;;
52031;SDS011;38044;45.148;39.604;2022-12-24T09:24:39;13.82;;;9.43;;
52031;SDS011;38044;45.148;39.604;2022-12-24T09:27:05;14.05;;;9.00;;
52031;SDS011;38044;45.148;39.604;2022-12-24T09:29:31;15.98;;;10.75;;
52031;SDS011;38044;45.148;39.604;2022-12-24T09:31:57;13.05;;;9.20;;
52031;SDS011;38044;45.148;39.604;2022-12-24T09:34:23;15.27;;;9.40;;
52031;SDS011;38044;45.148;39.604;2022-12-24T09:36:49;13.00;;;9.88;;
52031;SDS011;38044;45.148;39.604;2022-12-24T09:39:18;15.13;;;9.15;;
52031;SDS011;38044;45.148;39.604;2022-12-24T09:44:22;17.83;;;10.02;;
52031;SDS011;38044;45.148;39.604;2022-12-24T09:47:27;12.50;;;9.77;;
52031;SDS011;38044;45.148;39.604;2022-12-24T09:50:01;13.82;;;9.70;;
52031;SDS011;38044;45.148;39.604;2022-12-24T09:52:29;14.63;;;10.05;;
52031;SDS011;38044;45.148;39.604;2022-12-24T09:55:06;14.95;;;9.48;;
52031;SDS011;38044;45.148;39.604;2022-12-24T09:57:51;14.60;;;9.73;;
52031;SDS011;38044;45.148;39.604;2022-12-24T10:00:21;14.25;;;9.80;;
52031;SDS011;38044;45.148;39.604;2022-12-24T10:03:00;15.02;;;9.50;;
52031;SDS011;38044;45.148;39.604;2022-12-24T10:05:32;21.08;;;10.20;;
52031;SDS011;38044;45.148;39.604;2022-12-24T10:08:17;13.93;;;9.75;;
52031;SDS011;38044;45.148;39.604;2022-12-24T10:10:50;15.43;;;10.43;;
52031;SDS011;38044;45.148;39.604;2022-12-24T10:13:31;12.48;;;9.40;;
52031;SDS011;38044;45.148;39.604;2022-12-24T10:18:51;17.80;;;9.82;;
52031;SDS011;38044;45.148;39.604;2022-12-24T10:21:59;15.15;;;9.82;;
52031;SDS011;38044;45.148;39.604;2022-12-24T10:29:41;14.15;;;9.52;;
52031;SDS011;38044;45.148;39.604;2022-12-24T10:32:34;16.95;;;9.40;;
52031;SDS011;38044;45.148;39.604;2022-12-24T10:35:02;16.65;;;10.23;;
52031;SDS011;38044;45.148;39.604;2022-12-24T10:37:40;17.42;;;10.00;;
52031;SDS011;38044;45.148;39.604;2022-12-24T10:40:29;13.48;;;10.20;;
52031;SDS011;38044;45.148;39.604;2022-12-24T10:43:13;13.60;;;9.35;;
52031;SDS011;38044;45.148;39.604;2022-12-24T10:45:48;14.35;;;9.75;;
52031;SDS011;38044;45.148;39.604;2022-12-24T10:48:37;14.23;;;9.43;;
52031;SDS011;38044;45.148;39.604;2022-12-24T10:51:14;16.10;;;9.95;;
52031;SDS011;38044;45.148;39.604;2022-12-24T10:56:23;14.85;;;9.27;;
52031;SDS011;38044;45.148;39.604;2022-12-24T10:58:51;13.85;;;9.13;;
52031;SDS011;38044;45.148;39.604;2022-12-24T11:01:19;13.13;;;8.95;;
52031;SDS011;38044;45.148;39.604;2022-12-24T11:04:03;15.15;;;9.60;;
52031;SDS011;38044;45.148;39.604;2022-12-24T11:06:29;12.15;;;9.00;;
52031;SDS011;38044;45.148;39.604;2022-12-24T11:08:55;13.30;;;8.82;;
52031;SDS011;38044;45.148;39.604;2022-12-24T11:11:44;12.70;;;8.25;;
52031;SDS011;38044;45.148;39.604;2022-12-24T11:14:13;13.40;;;8.40;;
52031;SDS011;38044;45.148;39.604;2022-12-24T11:16:52;12.05;;;8.23;;
52031;SDS011;38044;45.148;39.604;2022-12-24T11:19:23;12.50;;;7.95;;
52031;SDS011;38044;45.148;39.604;2022-12-24T11:22:00;17.73;;;8.48;;
52031;SDS011;38044;45.148;39.604;2022-12-24T11:27:26;14.23;;;8.40;;
52031;SDS011;38044;45.148;39.604;2022-12-24T11:30:12;12.68;;;8.13;;
52031;SDS011;38044;45.148;39.604;2022-12-24T11:32:39;15.18;;;8.63;;
52031;SDS011;38044;45.148;39.604;2022-12-24T11:35:07;14.85;;;8.50;;
52031;SDS011;38044;45.148;39.604;2022-12-24T11:37:40;11.68;;;7.70;;
52031;SDS011;38044;45.148;39.604;2022-12-24T11:40:16;12.60;;;8.35;;
52031;SDS011;38044;45.148;39.604;2022-12-24T11:42:47;14.50;;;9.10;;
52031;SDS011;38044;45.148;39.604;2022-12-24T11:45:24;14.70;;;8.93;;
52031;SDS011;38044;45.148;39.604;2022-12-24T11:47:53;16.38;;;9.25;;
52031;SDS011;38044;45.148;39.604;2022-12-24T11:50:27;16.13;;;9.43;;
52031;SDS011;38044;45.148;39.604;2022-12-24T12:00:41;16.05;;;10.00;;
52031;SDS011;38044;45.148;39.604;2022-12-24T12:03:23;17.10;;;10.30;;
52031;SDS011;38044;45.148;39.604;2022-12-24T12:05:58;14.93;;;10.40;;
52031;SDS011;38044;45.148;39.604;2022-12-24T12:08:27;16.70;;;10.60;;
52031;SDS011;38044;45.148;39.604;2022-12-24T12:10:54;18.02;;;10.50;;
52031;SDS011;38044;45.148;39.604;2022-12-24T12:13:28;25.67;;;14.73;;
52031;SDS011;38044;45.148;39.604;2022-12-24T12:18:52;31.40;;;16.95;;
52031;SDS011;38044;45.148;39.604;2022-12-24T12:21:26;22.45;;;15.30;;
52031;SDS011;38044;45.148;39.604;2022-12-24T12:24:11;28.10;;;17.70;;
52031;SDS011;38044;45.148;39.604;2022-12-24T12:26:42;22.27;;;14.25;;
52031;SDS011;38044;45.148;39.604;2022-12-24T12:31:55;23.63;;;14.65;;
52031;SDS011;38044;45.148;39.604;2022-12-24T12:34:30;20.92;;;13.07;;
52031;SDS011;38044;45.148;39.604;2022-12-24T12:40:01;25.95;;;14.45;;
52031;SDS011;38044;45.148;39.604;2022-12-24T12:42:34;24.13;;;15.02;;
52031;SDS011;38044;45.148;39.604;2022-12-24T12:50:39;25.52;;;16.00;;
52031;SDS011;38044;45.148;39.604;2022-12-24T12:56:33;23.55;;;13.50;;
52031;SDS011;38044;45.148;39.604;2022-12-24T12:59:15;27.80;;;13.50;;
52031;SDS011;38044;45.148;39.604;2022-12-24T13:20:47;27.00;;;15.68;;
52031;SDS011;38044;45.148;39.604;2022-12-24T13:23:18;44.55;;;26.17;;
52031;SDS011;38044;45.148;39.604;2022-12-24T13:25:47;49.90;;;29.08;;
52031;SDS011;38044;45.148;39.604;2022-12-24T13:28:24;43.58;;;25.27;;
52031;SDS011;38044;45.148;39.604;2022-12-24T13:36:05;47.85;;;25.35;;
52031;SDS011;38044;45.148;39.604;2022-12-24T13:38:41;36.78;;;24.05;;
52031;SDS011;38044;45.148;39.604;2022-12-24T13:49:42;30.98;;;20.23;;
52031;SDS011;38044;45.148;39.604;2022-12-24T13:57:34;32.40;;;20.58;;
52031;SDS011;38044;45.148;39.604;2022-12-24T14:03:04;32.10;;;19.23;;
52031;SDS011;38044;45.148;39.604;2022-12-24T14:05:44;35.67;;;18.77;;
52031;SDS011;38044;45.148;39.604;2022-12-24T14:08:37;30.85;;;18.70;;
52031;SDS011;38044;45.148;39.604;2022-12-24T14:11:10;46.50;;;21.80;;
52031;SDS011;38044;45.148;39.604;2022-12-24T14:21:37;79.82;;;28.00;;
52031;SDS011;38044;45.148;39.604;2022-12-24T14:24:12;65.13;;;27.13;;
52031;SDS011;38044;45.148;39.604;2022-12-24T14:26:48;48.25;;;22.13;;
52031;SDS011;38044;45.148;39.604;2022-12-24T14:31:51;55.65;;;25.05;;
52031;SDS011;38044;45.148;39.604;2022-12-24T14:34:21;50.58;;;25.52;;
52031;SDS011;38044;45.148;39.604;2022-12-24T14:36:47;52.83;;;23.75;;
52031;SDS011;38044;45.148;39.604;2022-12-24T14:39:21;51.67;;;23.98;;
52031;SDS011;38044;45.148;39.604;2022-12-24T14:50:49;44.70;;;22.00;;
52031;SDS011;38044;45.148;39.604;2022-12-24T14:53:25;52.30;;;24.15;;
52031;SDS011;38044;45.148;39.604;2022-12-24T14:56:17;49.30;;;21.85;;
52031;SDS011;38044;45.148;39.604;2022-12-24T14:58:45;57.38;;;25.05;;
52031;SDS011;38044;45.148;39.604;2022-12-24T15:06:39;52.05;;;23.85;;
52031;SDS011;38044;45.148;39.604;2022-12-24T15:09:24;50.63;;;24.23;;
52031;SDS011;38044;45.148;39.604;2022-12-24T15:11:54;53.08;;;23.70;;
52031;SDS011;38044;45.148;39.604;2022-12-24T15:14:23;83.45;;;31.25;;
52031;SDS011;38044;45.148;39.604;2022-12-24T15:16:55;71.25;;;27.50;;
52031;SDS011;38044;45.148;39.604;2022-12-24T15:19:23;44.55;;;22.40;;
52031;SDS011;38044;45.148;39.604;2022-12-24T15:24:23;98.25;;;46.80;;
52031;SDS011;38044;45.148;39.604;2022-12-24T15:26:49;49.20;;;26.45;;
52031;SDS011;38044;45.148;39.604;2022-12-24T15:29:23;42.97;;;21.48;;
52031;SDS011;38044;45.148;39.604;2022-12-24T15:31:54;53.70;;;26.83;;
52031;SDS011;38044;45.148;39.604;2022-12-24T15:34:26;33.53;;;18.92;;
52031;SDS011;38044;45.148;39.604;2022-12-24T15:37:37;41.23;;;21.97;;
52031;SDS011;38044;45.148;39.604;2022-12-24T15:42:26;39.63;;;20.10;;
52031;SDS011;38044;45.148;39.604;2022-12-24T15:45:00;39.78;;;22.80;;
52031;SDS011;38044;45.148;39.604;2022-12-24T15:47:51;45.75;;;22.92;;
52031;SDS011;38044;45.148;39.604;2022-12-24T15:50:33;36.45;;;21.13;;
52031;SDS011;38044;45.148;39.604;2022-12-24T15:53:04;40.25;;;21.73;;
52031;SDS011;38044;45.148;39.604;2022-12-24T15:55:44;40.08;;;23.67;;
52031;SDS011;38044;45.148;39.604;2022-12-24T15:58:27;48.33;;;24.75;;
52031;SDS011;38044;45.148;39.604;2022-12-24T16:03:39;62.92;;;32.65;;
52031;SDS011;38044;45.148;39.604;2022-12-24T16:06:20;71.07;;;35.80;;
52031;SDS011;38044;45.148;39.604;2022-12-24T16:08:46;69.60;;;34.88;;
52031;SDS011;38044;45.148;39.604;2022-12-24T16:11:34;65.65;;;33.28;;
52031;SDS011;38044;45.148;39.604;2022-12-24T16:14:19;64.35;;;31.95;;
52031;SDS011;38044;45.148;39.604;2022-12-24T16:16:45;62.83;;;31.50;;
52031;SDS011;38044;45.148;39.604;2022-12-24T16:19:23;64.15;;;33.03;;
52031;SDS011;38044;45.148;39.604;2022-12-24T16:21:52;62.55;;;31.02;;
52031;SDS011;38044;45.148;39.604;2022-12-24T16:26:51;67.75;;;32.00;;
52031;SDS011;38044;45.148;39.604;2022-12-24T16:29:19;52.10;;;28.25;;
52031;SDS011;38044;45.148;39.604;2022-12-24T16:31:50;43.92;;;24.30;;
52031;SDS011;38044;45.148;39.604;2022-12-24T16:34:18;41.90;;;24.48;;
52031;SDS011;38044;45.148;39.604;2022-12-24T16:36:47;41.03;;;24.17;;
52031;SDS011;38044;45.148;39.604;2022-12-24T16:39:15;46.92;;;23.20;;
52031;SDS011;38044;45.148;39.604;2022-12-24T16:41:53;44.17;;;24.17;;
52031;SDS011;38044;45.148;39.604;2022-12-24T16:44:40;40.65;;;22.17;;
52031;SDS011;38044;45.148;39.604;2022-12-24T16:47:13;47.63;;;25.35;;